createdAt,value
2022-12-26T00:00:00.139Z,17.73
2022-12-26T00:02:26.622Z,16.97
2022-12-26T00:04:53.872Z,16.88
2022-12-26T00:07:20.755Z,16.75
2022-12-26T00:09:47.319Z,15.18
2022-12-26T00:12:13.886Z,15.00
2022-12-26T00:14:40.388Z,15.77
2022-12-26T00:17:07.641Z,18.10
2022-12-26T00:19:34.111Z,17.30
2022-12-26T00:22:00.887Z,18.30
2022-12-26T00:24:27.355Z,17.45
2022-12-26T00:26:53.805Z,14.27
2022-12-26T00:29:20.274Z,15.95
2022-12-26T00:31:47.052Z,18.10
2022-12-26T00:34:13.654Z,19.25
2022-12-26T00:36:40.239Z,19.80
2022-12-26T00:39:06.824Z,17.67
2022-12-26T00:41:33.714Z,20.45
2022-12-26T00:44:00.288Z,17.13
2022-12-26T00:46:27.601Z,19.30
2022-12-26T00:48:54.186Z,19.50
2022-12-26T00:51:21.084Z,20.47
2022-12-26T00:53:47.717Z,20.70
2022-12-26T00:56:14.281Z,21.95
2022-12-26T00:58:42.036Z,20.42
2022-12-26T01:01:14.334Z,21.95
2022-12-26T01:03:41.764Z,21.70
2022-12-26T01:06:08.628Z,22.35
2022-12-26T01:08:35.181Z,21.77
2022-12-26T01:11:04.110Z,18.35
2022-12-26T01:13:30.589Z,21.98
2022-12-26T01:15:57.146Z,20.80
2022-12-26T01:18:23.669Z,18.85
2022-12-26T01:20:50.147Z,21.33
2022-12-26T01:23:17.465Z,21.00
2022-12-26T01:26:15.474Z,21.42
2022-12-26T01:28:30.604Z,20.97
2022-12-26T01:31:01.682Z,19.75
2022-12-26T01:33:28.099Z,21.45
2022-12-26T01:35:54.662Z,19.85
2022-12-26T01:38:21.921Z,21.75
2022-12-26T01:40:49.356Z,21.40
2022-12-26T01:43:16.832Z,21.25
2022-12-26T01:45:49.308Z,18.58
2022-12-26T01:48:33.416Z,22.38
2022-12-26T01:51:05.425Z,22.77
2022-12-26T01:53:37.372Z,21.57
2022-12-26T01:56:06.969Z,21.33
2022-12-26T01:58:37.894Z,21.27
2022-12-26T02:01:08.266Z,24.60
2022-12-26T02:03:57.579Z,23.75
2022-12-26T02:06:24.211Z,23.17
2022-12-26T02:08:51.013Z,23.05
2022-12-26T02:11:34.828Z,25.25
2022-12-26T02:14:02.280Z,25.77
2022-12-26T02:16:30.042Z,23.02
2022-12-26T02:18:56.575Z,23.20
2022-12-26T02:21:32.048Z,23.70
2022-12-26T02:24:13.014Z,25.15
2022-12-26T02:27:24.365Z,24.63
2022-12-26T02:30:28.076Z,23.60
2022-12-26T02:33:13.854Z,24.40
2022-12-26T02:35:54.835Z,21.70
2022-12-26T02:38:21.260Z,22.73
2022-12-26T02:40:52.900Z,23.33
2022-12-26T02:43:41.419Z,22.63
2022-12-26T02:46:45.169Z,20.67
2022-12-26T02:49:53.028Z,22.02
2022-12-26T02:52:44.409Z,22.05
2022-12-26T02:55:36.400Z,22.77
2022-12-26T02:58:34.150Z,21.85
2022-12-26T03:01:24.731Z,23.23
2022-12-26T03:04:14.939Z,21.30
2022-12-26T03:07:05.099Z,21.90
2022-12-26T03:09:53.506Z,22.13
2022-12-26T03:12:38.375Z,23.15
2022-12-26T03:15:11.985Z,20.50
2022-12-26T03:17:46.788Z,21.08
2022-12-26T03:20:13.184Z,21.92
2022-12-26T03:22:54.054Z,21.80
2022-12-26T03:25:50.767Z,21.65
2022-12-26T03:28:17.353Z,21.87
2022-12-26T03:30:49.816Z,21.63
2022-12-26T03:33:40.958Z,22.02
2022-12-26T03:36:11.532Z,20.83
2022-12-26T03:39:07.460Z,20.70
2022-12-26T03:42:06.479Z,18.67
2022-12-26T03:45:09.823Z,19.65
2022-12-26T03:48:02.338Z,20.55
2022-12-26T03:50:59.006Z,20.65
2022-12-26T03:54:07.088Z,18.85
2022-12-26T03:57:13.707Z,22.93
2022-12-26T04:00:05.876Z,21.52
2022-12-26T04:02:54.170Z,21.80
2022-12-26T04:05:40.565Z,22.80
2022-12-26T04:08:35.571Z,21.58
2022-12-26T04:11:22.885Z,22.13
2022-12-26T04:14:29.515Z,22.13
2022-12-26T04:17:57.538Z,21.00
2022-12-26T04:20:48.646Z,22.90
2022-12-26T04:23:46.282Z,21.83
2022-12-26T04:26:59.232Z,23.23
2022-12-26T04:29:44.359Z,23.05
2022-12-26T04:32:46.875Z,21.33
2022-12-26T04:35:40.267Z,21.95
2022-12-26T04:38:26.625Z,21.50
2022-12-26T04:41:16.368Z,21.40
2022-12-26T04:44:02.551Z,22.98
2022-12-26T04:46:32.175Z,23.75
2022-12-26T04:49:21.469Z,22.02
2022-12-26T04:51:48.314Z,24.02
2022-12-26T04:54:14.893Z,22.07
2022-12-26T04:56:41.413Z,23.30
2022-12-26T04:59:07.862Z,23.38
2022-12-26T05:01:52.935Z,23.08
2022-12-26T05:04:38.557Z,22.40
2022-12-26T05:07:29.814Z,19.20
2022-12-26T05:09:56.376Z,19.92
2022-12-26T05:12:22.898Z,19.45
2022-12-26T05:14:49.609Z,19.95
2022-12-26T05:17:34.769Z,17.95
2022-12-26T05:20:19.451Z,18.27
2022-12-26T05:23:05.193Z,17.85
2022-12-26T05:25:55.566Z,17.13
2022-12-26T05:28:40.754Z,14.40
2022-12-26T05:31:08.644Z,15.45
2022-12-26T05:33:53.749Z,16.10
2022-12-26T05:36:23.082Z,14.50
2022-12-26T05:38:49.579Z,13.85
2022-12-26T05:41:16.506Z,11.80
2022-12-26T05:43:44.202Z,11.07
2022-12-26T05:46:10.785Z,12.00
2022-12-26T05:48:37.290Z,11.25
2022-12-26T05:51:04.582Z,11.90
2022-12-26T05:53:32.066Z,11.20
2022-12-26T05:56:12.462Z,9.57
2022-12-26T05:58:39.765Z,9.10
2022-12-26T06:01:15.143Z,10.45
2022-12-26T06:03:43.761Z,11.25
2022-12-26T06:06:10.768Z,10.85
2022-12-26T06:08:37.567Z,11.13
2022-12-26T06:11:06.529Z,10.47
2022-12-26T06:13:34.079Z,10.98
2022-12-26T06:16:05.309Z,10.95
2022-12-26T06:18:31.923Z,10.57
2022-12-26T06:20:58.461Z,10.65
2022-12-26T06:23:24.954Z,11.63
2022-12-26T06:25:55.785Z,10.85
2022-12-26T06:28:23.633Z,10.50
2022-12-26T06:30:51.949Z,10.98
2022-12-26T06:33:19.213Z,10.52
2022-12-26T06:35:46.051Z,8.43
2022-12-26T06:38:12.825Z,10.10
2022-12-26T06:40:40.556Z,10.18
2022-12-26T06:43:08.606Z,9.93
2022-12-26T06:45:35.773Z,10.95
2022-12-26T06:48:02.729Z,9.57
2022-12-26T06:50:29.370Z,8.65
2022-12-26T06:52:55.883Z,9.45
2022-12-26T06:55:22.351Z,10.15
2022-12-26T06:57:52.006Z,10.65
2022-12-26T07:00:18.639Z,8.47
2022-12-26T07:02:45.157Z,9.88
2022-12-26T07:05:11.640Z,9.13
2022-12-26T07:07:38.125Z,9.60
2022-12-26T07:10:04.859Z,10.27
2022-12-26T07:12:34.919Z,10.47
2022-12-26T07:15:02.122Z,9.00
2022-12-26T07:17:28.766Z,10.00
2022-12-26T07:19:55.293Z,9.50
2022-12-26T07:22:21.766Z,9.90
2022-12-26T07:24:48.241Z,10.97
2022-12-26T07:27:14.697Z,11.10
2022-12-26T07:29:41.176Z,9.75
2022-12-26T07:32:07.687Z,10.60
2022-12-26T07:34:34.275Z,9.48
2022-12-26T07:37:00.783Z,9.40
2022-12-26T07:39:27.315Z,9.88
2022-12-26T07:41:59.519Z,11.10
2022-12-26T07:44:30.482Z,9.32
2022-12-26T07:46:57.264Z,9.30
2022-12-26T07:49:24.342Z,8.63
2022-12-26T07:51:51.098Z,8.43
2022-12-26T07:54:18.328Z,9.68
2022-12-26T07:56:45.293Z,8.60
2022-12-26T07:59:15.072Z,8.43
2022-12-26T08:01:42.418Z,7.63
2022-12-26T08:04:10.675Z,7.55
2022-12-26T08:06:38.122Z,8.10
2022-12-26T08:09:05.503Z,8.50
2022-12-26T08:11:35.023Z,7.82
2022-12-26T08:14:02.231Z,7.00
2022-12-26T08:16:29.238Z,8.25
2022-12-26T08:18:55.784Z,9.27
2022-12-26T08:21:22.268Z,7.65
2022-12-26T08:23:48.911Z,7.75
2022-12-26T08:26:20.845Z,6.87
2022-12-26T08:28:47.449Z,6.72
2022-12-26T08:31:14.312Z,7.30
2022-12-26T08:33:40.945Z,8.15
2022-12-26T08:36:10.643Z,7.65
2022-12-26T08:38:37.633Z,7.30
2022-12-26T08:41:04.235Z,6.30
2022-12-26T08:44:24.984Z,7.05
2022-12-26T08:46:19.555Z,6.63
2022-12-26T08:48:47.150Z,8.18
2022-12-26T08:51:24.814Z,5.70
2022-12-26T08:53:53.284Z,6.93
2022-12-26T08:56:22.386Z,8.18
2022-12-26T08:58:49.302Z,6.53
2022-12-26T09:01:18.876Z,7.45
2022-12-26T09:03:45.551Z,6.60
2022-12-26T09:06:14.209Z,6.47
2022-12-26T09:08:41.932Z,7.05
2022-12-26T09:11:12.107Z,5.53
2022-12-26T09:13:39.026Z,5.75
2022-12-26T09:16:06.713Z,5.97
2022-12-26T09:18:33.395Z,5.68
2022-12-26T09:21:04.451Z,7.40
2022-12-26T09:23:31.411Z,6.40
2022-12-26T09:26:11.149Z,6.22
2022-12-26T09:28:38.948Z,5.90
2022-12-26T09:31:09.937Z,5.93
2022-12-26T09:33:37.716Z,6.25
2022-12-26T09:36:12.518Z,6.18
2022-12-26T09:38:40.921Z,6.50
2022-12-26T09:41:15.994Z,6.20
2022-12-26T09:44:05.597Z,5.95
2022-12-26T09:46:47.369Z,6.63
2022-12-26T09:49:20.400Z,5.75
2022-12-26T09:51:52.697Z,7.85
2022-12-26T09:54:31.547Z,5.37
2022-12-26T09:57:03.393Z,6.15
2022-12-26T09:59:34.415Z,6.07
2022-12-26T10:02:01.088Z,5.15
2022-12-26T10:04:30.423Z,6.05
2022-12-26T10:07:15.068Z,7.57
2022-12-26T10:10:00.330Z,6.10
2022-12-26T10:12:42.617Z,6.18
2022-12-26T10:15:22.410Z,5.72
2022-12-26T10:17:52.641Z,5.97
2022-12-26T10:20:39.885Z,5.13
2022-12-26T10:23:29.882Z,5.47
2022-12-26T10:26:11.057Z,5.80
2022-12-26T10:29:09.702Z,5.95
2022-12-26T10:31:38.983Z,5.80
2022-12-26T10:34:17.243Z,5.13
2022-12-26T10:36:43.675Z,6.00
2022-12-26T10:39:19.704Z,6.05
2022-12-26T10:41:50.244Z,4.93
2022-12-26T10:44:16.847Z,4.97
2022-12-26T10:46:59.128Z,5.67
2022-12-26T10:49:27.077Z,5.97
2022-12-26T10:51:57.179Z,5.45
2022-12-26T10:54:23.833Z,6.25
2022-12-26T10:56:52.151Z,6.00
2022-12-26T10:59:22.713Z,6.77
2022-12-26T11:01:50.252Z,5.95
2022-12-26T11:05:02.160Z,5.63
2022-12-26T11:07:12.873Z,4.97
2022-12-26T11:09:42.763Z,6.38
2022-12-26T11:12:59.619Z,6.10
2022-12-26T11:15:38.497Z,5.85
2022-12-26T11:18:19.809Z,5.53
2022-12-26T11:20:47.077Z,4.35
2022-12-26T11:23:26.483Z,5.50
2022-12-26T11:25:55.761Z,6.07
2022-12-26T11:28:34.395Z,8.68
2022-12-26T11:31:06.956Z,6.55
2022-12-26T11:33:43.908Z,6.38
2022-12-26T11:36:20.267Z,12.07
2022-12-26T11:38:57.007Z,9.77
2022-12-26T11:41:32.167Z,6.85
2022-12-26T11:44:11.375Z,8.57
2022-12-26T11:46:53.275Z,6.32
2022-12-26T11:49:22.779Z,5.95
2022-12-26T11:51:55.614Z,5.83
2022-12-26T11:54:35.646Z,7.43
2022-12-26T11:57:17.065Z,5.72
2022-12-26T11:59:43.730Z,7.78
2022-12-26T12:02:12.999Z,5.65
2022-12-26T12:04:39.553Z,4.73
2022-12-26T12:07:20.283Z,5.32
2022-12-26T12:10:05.204Z,6.32
2022-12-26T12:13:34.314Z,7.88
2022-12-26T12:16:13.293Z,7.45
2022-12-26T12:19:07.855Z,4.73
2022-12-26T12:21:56.244Z,6.22
2022-12-26T12:24:50.594Z,6.28
2022-12-26T12:27:25.967Z,8.02
2022-12-26T12:30:11.077Z,6.35
2022-12-26T12:33:08.497Z,7.53
2022-12-26T12:35:55.142Z,8.75
2022-12-26T12:38:24.717Z,6.15
2022-12-26T12:41:36.000Z,5.53
2022-12-26T12:44:39.738Z,5.63
2022-12-26T12:47:29.699Z,4.87
2022-12-26T12:50:13.072Z,4.45
2022-12-26T12:53:10.470Z,5.60
2022-12-26T12:55:47.760Z,4.55
2022-12-26T12:58:31.437Z,5.38
2022-12-26T13:01:05.236Z,5.27
2022-12-26T13:03:46.871Z,4.82
2022-12-26T13:06:20.315Z,5.07
2022-12-26T13:09:05.555Z,5.10
2022-12-26T13:11:34.780Z,4.78
2022-12-26T13:14:07.522Z,4.63
2022-12-26T13:16:43.642Z,5.07
2022-12-26T13:19:25.512Z,4.68
2022-12-26T13:21:56.672Z,5.20
2022-12-26T13:24:38.641Z,5.72
2022-12-26T13:27:31.188Z,4.97
2022-12-26T13:29:57.968Z,5.60
2022-12-26T13:32:27.018Z,5.45
2022-12-26T13:34:55.843Z,4.35
2022-12-26T13:37:40.406Z,5.47
2022-12-26T13:40:17.988Z,5.57
2022-12-26T13:43:04.810Z,4.57
2022-12-26T13:45:37.314Z,5.75
2022-12-26T13:48:16.259Z,5.88
2022-12-26T13:50:56.433Z,6.07
2022-12-26T13:53:26.299Z,3.60
2022-12-26T13:56:23.529Z,5.78
2022-12-26T13:58:53.918Z,5.35
2022-12-26T14:01:41.724Z,5.18
2022-12-26T14:04:35.388Z,5.72
2022-12-26T14:07:20.464Z,4.50
2022-12-26T14:09:56.485Z,4.72
2022-12-26T14:12:28.880Z,4.97
2022-12-26T14:15:20.221Z,5.13
2022-12-26T14:18:04.926Z,5.72
2022-12-26T14:20:42.191Z,5.20
2022-12-26T14:23:26.583Z,6.07
2022-12-26T14:26:03.323Z,5.80
2022-12-26T14:28:51.650Z,4.10
2022-12-26T14:31:37.311Z,6.10
2022-12-26T14:34:21.975Z,4.67
2022-12-26T14:37:03.876Z,5.15
2022-12-26T14:39:51.213Z,5.15
2022-12-26T14:42:40.308Z,5.10
2022-12-26T14:45:32.638Z,5.20
2022-12-26T14:47:59.587Z,4.67
2022-12-26T14:50:32.298Z,4.30
2022-12-26T14:53:17.085Z,4.82
2022-12-26T14:55:52.438Z,4.80
2022-12-26T14:58:31.300Z,4.22
2022-12-26T15:01:18.299Z,3.83
2022-12-26T15:04:09.015Z,3.92
2022-12-26T15:06:47.603Z,3.22
2022-12-26T15:09:22.931Z,3.88
2022-12-26T15:12:20.681Z,5.28
2022-12-26T15:15:12.068Z,4.57
2022-12-26T15:18:00.308Z,4.43
2022-12-26T15:21:12.211Z,5.63
2022-12-26T15:23:50.694Z,4.55
2022-12-26T15:26:45.536Z,5.25
2022-12-26T15:29:38.146Z,4.80
2022-12-26T15:32:19.860Z,5.43
2022-12-26T15:35:00.248Z,5.43
2022-12-26T15:37:45.515Z,4.95
2022-12-26T15:40:23.464Z,5.57
2022-12-26T15:43:14.598Z,5.07
2022-12-26T15:45:58.065Z,5.53
2022-12-26T15:49:01.957Z,6.05
2022-12-26T15:52:24.762Z,5.13
2022-12-26T15:55:09.468Z,6.32
2022-12-26T15:57:50.359Z,6.97
2022-12-26T16:00:25.612Z,5.93
2022-12-26T16:03:15.604Z,6.45
2022-12-26T16:05:56.167Z,6.32
2022-12-26T16:08:50.062Z,6.32
2022-12-26T16:11:18.511Z,6.23
2022-12-26T16:13:53.243Z,6.60
2022-12-26T16:16:34.859Z,6.40
2022-12-26T16:19:22.735Z,6.05
2022-12-26T16:22:13.739Z,6.90
2022-12-26T16:24:42.141Z,6.30
2022-12-26T16:27:15.023Z,6.78
2022-12-26T16:29:47.939Z,7.03
2022-12-26T16:32:19.249Z,6.40
2022-12-26T16:34:46.707Z,7.18
2022-12-26T16:37:19.252Z,6.90
2022-12-26T16:40:04.758Z,6.75
2022-12-26T16:42:32.334Z,6.95
2022-12-26T16:45:00.135Z,7.13
2022-12-26T16:47:28.861Z,7.10
2022-12-26T16:49:56.019Z,6.63
2022-12-26T16:52:46.030Z,6.85
2022-12-26T16:55:22.331Z,8.77
2022-12-26T16:57:52.343Z,7.47
2022-12-26T17:00:21.479Z,7.68
2022-12-26T17:02:51.777Z,6.43
2022-12-26T17:05:23.231Z,7.50
2022-12-26T17:07:51.850Z,7.55
2022-12-26T17:10:33.009Z,7.35
2022-12-26T17:13:02.209Z,7.45
2022-12-26T17:15:38.855Z,6.60
2022-12-26T17:18:30.188Z,7.43
2022-12-26T17:21:14.357Z,7.03
2022-12-26T17:23:42.234Z,5.95
2022-12-26T17:26:21.302Z,6.57
2022-12-26T17:28:47.795Z,5.80
2022-12-26T17:31:25.273Z,6.63
2022-12-26T17:33:56.198Z,6.80
2022-12-26T17:39:18.746Z,6.78
2022-12-26T17:42:00.778Z,6.17
2022-12-26T17:44:34.477Z,6.45
2022-12-26T17:47:28.606Z,7.18
2022-12-26T17:49:55.922Z,6.75
2022-12-26T17:52:27.123Z,6.85
2022-12-26T17:54:53.901Z,7.10
2022-12-26T17:57:26.425Z,7.47
2022-12-26T17:59:53.881Z,7.60
2022-12-26T18:02:20.662Z,6.55
2022-12-26T18:04:48.056Z,7.80
2022-12-26T18:07:23.256Z,6.60
2022-12-26T18:09:55.407Z,7.90
2022-12-26T18:12:22.064Z,7.90
2022-12-26T18:14:48.525Z,6.63
2022-12-26T18:17:18.279Z,6.93
2022-12-26T18:19:46.021Z,6.53
2022-12-26T18:22:18.044Z,6.97
2022-12-26T18:24:45.321Z,6.95
2022-12-26T18:27:21.465Z,6.50
2022-12-26T18:29:49.624Z,7.32
2022-12-26T18:32:24.237Z,6.70
2022-12-26T18:34:51.453Z,6.07
2022-12-26T18:37:18.740Z,7.82
2022-12-26T18:39:45.231Z,6.97
2022-12-26T18:42:15.973Z,8.02
2022-12-26T18:44:43.557Z,7.97
2022-12-26T18:47:13.553Z,7.95
2022-12-26T18:49:41.587Z,8.38
2022-12-26T18:52:08.857Z,8.38
2022-12-26T18:54:36.490Z,7.97
2022-12-26T18:57:05.090Z,7.37
2022-12-26T18:59:31.617Z,8.38
2022-12-26T19:01:58.268Z,9.25
2022-12-26T19:04:25.519Z,7.40
2022-12-26T19:06:53.352Z,8.02
2022-12-26T19:09:20.164Z,7.20
2022-12-26T19:11:46.627Z,6.90
2022-12-26T19:14:21.504Z,7.95
2022-12-26T19:16:48.091Z,7.30
2022-12-26T19:19:14.648Z,8.48
2022-12-26T19:21:42.858Z,7.30
2022-12-26T19:24:11.264Z,7.47
2022-12-26T19:26:37.753Z,7.65
2022-12-26T19:29:04.217Z,6.65
2022-12-26T19:31:30.731Z,7.43
2022-12-26T19:33:58.823Z,7.50
2022-12-26T19:36:25.355Z,6.22
2022-12-26T19:38:55.019Z,7.72
2022-12-26T19:41:21.833Z,7.07
2022-12-26T19:43:48.651Z,7.18
2022-12-26T19:46:15.797Z,7.70
2022-12-26T19:48:42.524Z,8.02
2022-12-26T19:51:11.703Z,7.70
2022-12-26T19:53:39.091Z,7.75
2022-12-26T19:56:10.281Z,7.00
2022-12-26T19:58:37.585Z,6.40
2022-12-26T20:01:09.486Z,6.97
2022-12-26T20:03:37.068Z,6.78
2022-12-26T20:06:11.263Z,7.32
2022-12-26T20:08:38.567Z,7.75
2022-12-26T20:11:07.345Z,6.87
2022-12-26T20:13:35.234Z,6.80
2022-12-26T20:16:06.853Z,7.43
2022-12-26T20:18:35.146Z,7.90
2022-12-26T20:21:01.702Z,7.80
2022-12-26T20:23:28.183Z,8.17
2022-12-26T20:25:54.663Z,8.60
2022-12-26T20:28:21.200Z,11.05
2022-12-26T20:31:07.933Z,8.25
2022-12-26T20:33:39.139Z,9.00
2022-12-26T20:36:11.799Z,8.53
2022-12-26T20:38:39.265Z,8.02
2022-12-26T20:41:06.615Z,9.80
2022-12-26T20:43:34.067Z,8.50
2022-12-26T20:46:07.612Z,8.27
2022-12-26T20:48:34.290Z,8.03
2022-12-26T20:51:04.881Z,9.73
2022-12-26T20:53:32.252Z,9.07
2022-12-26T20:55:58.820Z,9.45
2022-12-26T20:58:27.115Z,8.13
2022-12-26T21:00:58.305Z,6.97
2022-12-26T21:03:25.546Z,7.57
2022-12-26T21:05:52.458Z,8.05
2022-12-26T21:08:19.520Z,7.50
2022-12-26T21:10:46.860Z,7.90
2022-12-26T21:13:13.454Z,8.40
2022-12-26T21:15:40.175Z,8.60
2022-12-26T21:18:06.649Z,7.70
2022-12-26T21:20:36.805Z,7.97
2022-12-26T21:23:03.446Z,9.23
2022-12-26T21:25:29.985Z,7.17
2022-12-26T21:27:59.390Z,8.43
2022-12-26T21:30:26.202Z,9.38
2022-12-26T21:32:52.751Z,8.43
2022-12-26T21:35:19.286Z,8.25
2022-12-26T21:37:48.406Z,7.77
2022-12-26T21:40:15.424Z,8.02
2022-12-26T21:42:41.931Z,8.55
2022-12-26T21:45:09.019Z,7.20
2022-12-26T21:47:35.627Z,7.97
2022-12-26T21:50:02.129Z,8.23
2022-12-26T21:52:28.616Z,9.20
2022-12-26T21:55:13.363Z,9.20
2022-12-26T21:57:39.909Z,8.65
2022-12-26T22:00:06.963Z,9.75
2022-12-26T22:02:54.782Z,8.40
2022-12-26T22:05:24.171Z,8.90
2022-12-26T22:07:56.069Z,9.77
2022-12-26T22:10:42.667Z,10.77
2022-12-26T22:13:09.567Z,9.35
2022-12-26T22:16:00.557Z,9.97
2022-12-26T22:18:27.292Z,9.10
2022-12-26T22:20:53.829Z,10.00
2022-12-26T22:23:20.316Z,9.43
2022-12-26T22:25:54.977Z,9.05
2022-12-26T22:28:23.459Z,9.23
2022-12-26T22:30:51.020Z,8.93
2022-12-26T22:33:20.109Z,9.63
2022-12-26T22:35:46.917Z,8.65
2022-12-26T22:38:13.933Z,9.55
2022-12-26T22:40:40.630Z,8.83
2022-12-26T22:43:07.349Z,9.52
2022-12-26T22:45:33.815Z,10.57
2022-12-26T22:48:00.347Z,9.65
2022-12-26T22:50:26.797Z,9.85
2022-12-26T22:52:53.228Z,9.80
2022-12-26T22:55:19.713Z,10.85
2022-12-26T22:57:51.072Z,10.20
2022-12-26T23:00:18.999Z,9.85
2022-12-26T23:02:45.523Z,10.48
2022-12-26T23:05:12.779Z,8.97
2022-12-26T23:07:39.663Z,9.13
2022-12-26T23:10:07.747Z,10.88
2022-12-26T23:12:43.480Z,9.38
2022-12-26T23:15:19.650Z,11.18
2022-12-26T23:18:34.770Z,10.70
2022-12-26T23:21:26.558Z,9.40
2022-12-26T23:23:53.039Z,10.73
2022-12-26T23:26:19.514Z,9.15
2022-12-26T23:29:04.489Z,10.35
2022-12-26T23:31:30.939Z,9.23
2022-12-26T23:33:57.438Z,9.73
2022-12-26T23:36:23.928Z,11.45
2022-12-26T23:38:50.395Z,10.23
2022-12-26T23:41:16.830Z,10.93
2022-12-26T23:43:43.285Z,9.93
2022-12-26T23:46:10.983Z,9.60
2022-12-26T23:48:37.552Z,10.05
2022-12-26T23:51:06.278Z,10.48
2022-12-26T23:53:33.055Z,11.07
2022-12-26T23:55:59.540Z,9.37
2022-12-26T23:58:26.362Z,9.57
